sensor_id;sensor_type;location;lat;lon;timestamp;pressure;altitude;pressure_sealevel;temperature;humidity
5053;BME280;2545;50.892;5.740;2024-01-30T00:00:02;56272.88;;;-142.21;77.92
5053;BME280;2545;50.892;5.740;2024-01-30T00:02:29;56272.88;;;-142.21;77.81
5053;BME280;2545;50.892;5.740;2024-01-30T00:04:55;56298.38;;;-142.21;77.74
5053;BME280;2545;50.892;5.740;2024-01-30T00:07:21;56312.09;;;-142.21;77.48
5053;BME280;2545;50.892;5.740;2024-01-30T00:09:47;56272.88;;;-142.21;77.72
5053;BME280;2545;50.892;5.740;2024-01-30T00:12:14;56331.72;;;-142.21;77.17
5053;BME280;2545;50.892;5.740;2024-01-30T00:14:41;56304.25;;;-142.21;77.27
5053;BME280;2545;50.892;5.740;2024-01-30T00:17:08;56286.63;;;-142.21;77.27
5053;BME280;2545;50.892;5.740;2024-01-30T00:19:33;56296.41;;;-142.21;77.13
5053;BME280;2545;50.892;5.740;2024-01-30T00:21:59;56304.25;;;-142.21;76.97
5053;BME280;2545;50.892;5.740;2024-01-30T00:24:24;56308.19;;;-142.21;76.83
5053;BME280;2545;50.892;5.740;2024-01-30T00:26:49;56294.47;;;-142.21;76.99
5053;BME280;2545;50.892;5.740;2024-01-30T00:29:15;56276.81;;;-142.21;77.12
5053;BME280;2545;50.892;5.740;2024-01-30T00:31:44;56317.97;;;-142.21;76.87
5053;BME280;2545;50.892;5.740;2024-01-30T00:34:10;56317.97;;;-142.21;77.04
5053;BME280;2545;50.892;5.740;2024-01-30T00:36:35;56253.28;;;-142.21;77.49
5053;BME280;2545;50.892;5.740;2024-01-30T00:39:00;56327.78;;;-142.21;77.23
5053;BME280;2545;50.892;5.740;2024-01-30T00:41:26;56290.53;;;-142.21;77.29
5053;BME280;2545;50.892;5.740;2024-01-30T00:43:52;56286.63;;;-142.21;77.53
5053;BME280;2545;50.892;5.740;2024-01-30T00:46:17;56314.06;;;-142.21;78.04
5053;BME280;2545;50.892;5.740;2024-01-30T00:48:42;56263.06;;;-142.21;77.83
5053;BME280;2545;50.892;5.740;2024-01-30T00:51:08;56284.66;;;-142.21;77.96
5053;BME280;2545;50.892;5.740;2024-01-30T00:53:33;56290.53;;;-142.21;78.22
5053;BME280;2545;50.892;5.740;2024-01-30T00:55:58;56294.47;;;-142.21;78.22
5053;BME280;2545;50.892;5.740;2024-01-30T00:58:25;56253.28;;;-142.21;78.76
5053;BME280;2545;50.892;5.740;2024-01-30T01:00:50;56302.28;;;-142.21;78.59
5053;BME280;2545;50.892;5.740;2024-01-30T01:03:15;56284.66;;;-142.21;78.31
5053;BME280;2545;50.892;5.740;2024-01-30T01:05:41;56302.28;;;-142.21;78.23
5053;BME280;2545;50.892;5.740;2024-01-30T01:08:06;56288.56;;;-142.21;78.26
5053;BME280;2545;50.892;5.740;2024-01-30T01:10:31;56284.66;;;-142.21;78.23
5053;BME280;2545;50.892;5.740;2024-01-30T01:12:57;56290.53;;;-142.21;77.63
5053;BME280;2545;50.892;5.740;2024-01-30T01:15:22;56282.69;;;-142.21;77.55
5053;BME280;2545;50.892;5.740;2024-01-30T01:17:47;56310.13;;;-142.21;77.79
5053;BME280;2545;50.892;5.740;2024-01-30T01:20:13;56300.34;;;-142.21;77.00
5053;BME280;2545;50.892;5.740;2024-01-30T01:22:38;56290.53;;;-142.21;77.54
5053;BME280;2545;50.892;5.740;2024-01-30T01:25:04;56290.53;;;-142.21;77.56
5053;BME280;2545;50.892;5.740;2024-01-30T01:27:32;56272.88;;;-142.21;77.51
5053;BME280;2545;50.892;5.740;2024-01-30T01:29:58;56288.56;;;-142.21;77.38
5053;BME280;2545;50.892;5.740;2024-01-30T01:32:23;56265.03;;;-142.21;77.35
5053;BME280;2545;50.892;5.740;2024-01-30T01:34:48;56288.56;;;-142.21;77.17
5053;BME280;2545;50.892;5.740;2024-01-30T01:37:13;56300.34;;;-142.21;77.18
5053;BME280;2545;50.892;5.740;2024-01-30T01:39:42;56296.41;;;-142.21;77.19
5053;BME280;2545;50.892;5.740;2024-01-30T01:42:07;56270.91;;;-142.21;77.28
5053;BME280;2545;50.892;5.740;2024-01-30T01:44:33;56286.63;;;-142.21;77.45
5053;BME280;2545;50.892;5.740;2024-01-30T01:46:58;56316.03;;;-142.21;77.33
5053;BME280;2545;50.892;5.740;2024-01-30T01:49:27;56265.03;;;-142.21;77.24
5053;BME280;2545;50.892;5.740;2024-01-30T01:51:54;56321.91;;;-142.21;77.24
5053;BME280;2545;50.892;5.740;2024-01-30T01:54:22;56267.00;;;-142.21;77.40
5053;BME280;2545;50.892;5.740;2024-01-30T01:56:47;56306.22;;;-142.21;77.35
5053;BME280;2545;50.892;5.740;2024-01-30T01:59:13;56259.16;;;-142.21;77.42
5053;BME280;2545;50.892;5.740;2024-01-30T02:01:39;56343.47;;;-142.21;77.26
5053;BME280;2545;50.892;5.740;2024-01-30T02:04:08;56292.50;;;-142.21;76.63
5053;BME280;2545;50.892;5.740;2024-01-30T02:06:34;56302.28;;;-142.21;76.79
5053;BME280;2545;50.892;5.740;2024-01-30T02:08:59;56317.97;;;-142.21;76.58
5053;BME280;2545;50.892;5.740;2024-01-30T02:11:25;56280.72;;;-142.21;76.32
5053;BME280;2545;50.892;5.740;2024-01-30T02:13:50;56292.50;;;-142.21;76.17
5053;BME280;2545;50.892;5.740;2024-01-30T02:16:16;56274.84;;;-142.21;75.53
5053;BME280;2545;50.892;5.740;2024-01-30T02:18:44;56288.56;;;-142.21;75.81
5053;BME280;2545;50.892;5.740;2024-01-30T02:21:13;56302.28;;;-142.21;75.48
5053;BME280;2545;50.892;5.740;2024-01-30T02:23:40;56292.50;;;-142.21;74.98
5053;BME280;2545;50.892;5.740;2024-01-30T02:26:06;56272.88;;;-142.21;74.89
5053;BME280;2545;50.892;5.740;2024-01-30T02:28:31;56323.88;;;-142.21;74.91
5053;BME280;2545;50.892;5.740;2024-01-30T02:30:56;56290.53;;;-142.21;74.61
5053;BME280;2545;50.892;5.740;2024-01-30T02:33:21;56268.97;;;-142.21;74.45
5053;BME280;2545;50.892;5.740;2024-01-30T02:35:47;56272.88;;;-142.21;74.18
5053;BME280;2545;50.892;5.740;2024-01-30T02:38:13;56310.13;;;-142.21;74.25
5053;BME280;2545;50.892;5.740;2024-01-30T02:40:38;56294.47;;;-142.21;74.17
5053;BME280;2545;50.892;5.740;2024-01-30T02:43:05;56284.66;;;-142.21;74.55
5053;BME280;2545;50.892;5.740;2024-01-30T02:45:30;56292.50;;;-142.21;74.51
5053;BME280;2545;50.892;5.740;2024-01-30T02:47:55;56270.91;;;-142.21;74.52
5053;BME280;2545;50.892;5.740;2024-01-30T02:50:21;56284.66;;;-142.21;74.68
5053;BME280;2545;50.892;5.740;2024-01-30T02:52:46;56249.34;;;-142.21;74.82
5053;BME280;2545;50.892;5.740;2024-01-30T02:55:11;56276.81;;;-142.21;75.09
5053;BME280;2545;50.892;5.740;2024-01-30T02:57:37;56278.78;;;-142.21;75.37
5053;BME280;2545;50.892;5.740;2024-01-30T03:00:03;56265.03;;;-142.21;75.39
5053;BME280;2545;50.892;5.740;2024-01-30T03:02:31;56255.22;;;-142.21;75.42
5053;BME280;2545;50.892;5.740;2024-01-30T03:04:56;56261.13;;;-142.21;75.72
5053;BME280;2545;50.892;5.740;2024-01-30T03:07:21;56282.69;;;-142.21;75.98
5053;BME280;2545;50.892;5.740;2024-01-30T03:09:48;56286.63;;;-142.21;75.54
5053;BME280;2545;50.892;5.740;2024-01-30T03:12:13;56253.28;;;-142.21;75.05
5053;BME280;2545;50.892;5.740;2024-01-30T03:14:39;56270.91;;;-142.21;75.39
5053;BME280;2545;50.892;5.740;2024-01-30T03:17:04;56323.88;;;-142.21;75.30
5053;BME280;2545;50.892;5.740;2024-01-30T03:19:29;56272.88;;;-142.21;75.34
5053;BME280;2545;50.892;5.740;2024-01-30T03:21:54;56327.78;;;-142.21;75.01
5053;BME280;2545;50.892;5.740;2024-01-30T03:24:20;56267.00;;;-142.21;74.93
5053;BME280;2545;50.892;5.740;2024-01-30T03:26:45;56265.03;;;-142.21;74.73
5053;BME280;2545;50.892;5.740;2024-01-30T03:29:11;56270.91;;;-142.21;74.77
5053;BME280;2545;50.892;5.740;2024-01-30T03:31:36;56286.63;;;-142.21;75.21
5053;BME280;2545;50.892;5.740;2024-01-30T03:34:02;56274.84;;;-142.21;74.61
5053;BME280;2545;50.892;5.740;2024-01-30T03:36:27;56286.63;;;-142.21;74.33
5053;BME280;2545;50.892;5.740;2024-01-30T03:38:53;56302.28;;;-142.21;74.44
5053;BME280;2545;50.892;5.740;2024-01-30T03:41:18;56286.63;;;-142.21;74.64
5053;BME280;2545;50.892;5.740;2024-01-30T03:43:44;56268.97;;;-142.21;74.18
5053;BME280;2545;50.892;5.740;2024-01-30T03:46:11;56241.50;;;-142.21;74.20
5053;BME280;2545;50.892;5.740;2024-01-30T03:48:36;56261.13;;;-142.21;74.41
5053;BME280;2545;50.892;5.740;2024-01-30T03:51:02;56282.69;;;-142.21;74.29
5053;BME280;2545;50.892;5.740;2024-01-30T03:53:27;56255.22;;;-142.21;74.61
5053;BME280;2545;50.892;5.740;2024-01-30T03:55:54;56302.28;;;-142.21;75.30
5053;BME280;2545;50.892;5.740;2024-01-30T03:58:19;56331.72;;;-142.21;75.64
5053;BME280;2545;50.892;5.740;2024-01-30T04:00:44;56237.59;;;-142.21;75.18
5053;BME280;2545;50.892;5.740;2024-01-30T04:03:09;56280.72;;;-142.21;74.59
5053;BME280;2545;50.892;5.740;2024-01-30T04:05:35;56306.22;;;-142.21;74.89
5053;BME280;2545;50.892;5.740;2024-01-30T04:08:00;56319.94;;;-142.21;74.78
5053;BME280;2545;50.892;5.740;2024-01-30T04:10:26;56316.03;;;-142.21;75.41
5053;BME280;2545;50.892;5.740;2024-01-30T04:12:51;56267.00;;;-142.21;75.49
5053;BME280;2545;50.892;5.740;2024-01-30T04:15:21;56327.78;;;-142.21;75.69
5053;BME280;2545;50.892;5.740;2024-01-30T04:17:46;56265.03;;;-142.21;75.89
5053;BME280;2545;50.892;5.740;2024-01-30T04:20:16;56280.72;;;-142.21;75.96
5053;BME280;2545;50.892;5.740;2024-01-30T04:22:46;56268.97;;;-142.21;75.55
5053;BME280;2545;50.892;5.740;2024-01-30T04:25:12;56276.81;;;-142.21;75.26
5053;BME280;2545;50.892;5.740;2024-01-30T04:27:38;56265.03;;;-142.21;75.04
5053;BME280;2545;50.892;5.740;2024-01-30T04:30:04;56274.84;;;-142.21;74.97
5053;BME280;2545;50.892;5.740;2024-01-30T04:32:30;56270.91;;;-142.21;74.47
5053;BME280;2545;50.892;5.740;2024-01-30T04:34:55;56280.72;;;-142.21;74.54
5053;BME280;2545;50.892;5.740;2024-01-30T04:37:21;56310.13;;;-142.21;74.59
5053;BME280;2545;50.892;5.740;2024-01-30T04:39:46;56284.66;;;-142.21;74.26
5053;BME280;2545;50.892;5.740;2024-01-30T04:42:11;56306.22;;;-142.21;74.66
5053;BME280;2545;50.892;5.740;2024-01-30T04:44:37;56296.41;;;-142.21;74.48
5053;BME280;2545;50.892;5.740;2024-01-30T04:47:02;56268.97;;;-142.21;74.87
5053;BME280;2545;50.892;5.740;2024-01-30T04:49:28;56259.16;;;-142.21;75.02
5053;BME280;2545;50.892;5.740;2024-01-30T04:51:54;56316.03;;;-142.21;74.89
5053;BME280;2545;50.892;5.740;2024-01-30T04:54:19;56241.50;;;-142.21;74.93
5053;BME280;2545;50.892;5.740;2024-01-30T04:56:45;56308.19;;;-142.21;74.90
5053;BME280;2545;50.892;5.740;2024-01-30T04:59:10;56288.56;;;-142.21;75.18
5053;BME280;2545;50.892;5.740;2024-01-30T05:01:35;56253.28;;;-142.21;75.41
5053;BME280;2545;50.892;5.740;2024-01-30T05:04:00;56274.84;;;-142.21;74.98
5053;BME280;2545;50.892;5.740;2024-01-30T05:06:27;56286.63;;;-142.21;75.39
5053;BME280;2545;50.892;5.740;2024-01-30T05:08:53;56257.19;;;-142.21;75.21
5053;BME280;2545;50.892;5.740;2024-01-30T05:11:18;56276.81;;;-142.21;74.43
5053;BME280;2545;50.892;5.740;2024-01-30T05:13:44;56317.97;;;-142.21;74.57
5053;BME280;2545;50.892;5.740;2024-01-30T05:16:09;56302.28;;;-142.21;74.40
5053;BME280;2545;50.892;5.740;2024-01-30T05:18:35;56265.03;;;-142.21;74.68
5053;BME280;2545;50.892;5.740;2024-01-30T05:21:01;56310.13;;;-142.21;74.89
5053;BME280;2545;50.892;5.740;2024-01-30T05:23:28;56247.38;;;-142.21;74.54
5053;BME280;2545;50.892;5.740;2024-01-30T05:25:53;56255.22;;;-142.21;74.45
5053;BME280;2545;50.892;5.740;2024-01-30T05:28:18;56249.34;;;-142.21;74.68
5053;BME280;2545;50.892;5.740;2024-01-30T05:30:44;56284.66;;;-142.21;74.86
5053;BME280;2545;50.892;5.740;2024-01-30T05:33:09;56280.72;;;-142.21;74.55
5053;BME280;2545;50.892;5.740;2024-01-30T05:35:37;56274.84;;;-142.21;75.05
5053;BME280;2545;50.892;5.740;2024-01-30T05:38:02;56272.88;;;-142.21;75.19
5053;BME280;2545;50.892;5.740;2024-01-30T05:40:27;56302.28;;;-142.21;75.09
5053;BME280;2545;50.892;5.740;2024-01-30T05:42:54;56276.81;;;-142.21;75.32
5053;BME280;2545;50.892;5.740;2024-01-30T05:45:19;56270.91;;;-142.21;75.64
5053;BME280;2545;50.892;5.740;2024-01-30T05:47:45;56268.97;;;-142.21;75.81
5053;BME280;2545;50.892;5.740;2024-01-30T05:50:10;56325.84;;;-142.21;75.89
5053;BME280;2545;50.892;5.740;2024-01-30T05:52:37;56288.56;;;-142.21;76.39
5053;BME280;2545;50.892;5.740;2024-01-30T05:55:02;56270.91;;;-142.21;76.56
5053;BME280;2545;50.892;5.740;2024-01-30T05:57:28;56304.25;;;-142.21;76.76
5053;BME280;2545;50.892;5.740;2024-01-30T05:59:53;56229.75;;;-142.21;76.62
5053;BME280;2545;50.892;5.740;2024-01-30T06:02:18;56292.50;;;-142.21;77.04
5053;BME280;2545;50.892;5.740;2024-01-30T06:04:45;56292.50;;;-142.21;77.03
5053;BME280;2545;50.892;5.740;2024-01-30T06:07:10;56288.56;;;-142.21;77.54
5053;BME280;2545;50.892;5.740;2024-01-30T06:09:36;56278.78;;;-142.21;77.22
5053;BME280;2545;50.892;5.740;2024-01-30T06:12:01;56268.97;;;-142.21;77.52
5053;BME280;2545;50.892;5.740;2024-01-30T06:14:26;56304.25;;;-142.21;77.70
5053;BME280;2545;50.892;5.740;2024-01-30T06:16:52;56308.19;;;-142.21;77.72
5053;BME280;2545;50.892;5.740;2024-01-30T06:19:17;56268.97;;;-142.21;77.86
5053;BME280;2545;50.892;5.740;2024-01-30T06:21:42;56247.38;;;-142.21;77.96
5053;BME280;2545;50.892;5.740;2024-01-30T06:24:07;56316.03;;;-142.21;77.94
5053;BME280;2545;50.892;5.740;2024-01-30T06:26:34;56268.97;;;-142.21;77.41
5053;BME280;2545;50.892;5.740;2024-01-30T06:28:59;56265.03;;;-142.21;77.83
5053;BME280;2545;50.892;5.740;2024-01-30T06:31:27;56302.28;;;-142.21;77.56
5053;BME280;2545;50.892;5.740;2024-01-30T06:33:53;56302.28;;;-142.21;77.55
5053;BME280;2545;50.892;5.740;2024-01-30T06:36:18;56339.56;;;-142.21;77.50
5053;BME280;2545;50.892;5.740;2024-01-30T06:38:44;56323.88;;;-142.21;77.56
5053;BME280;2545;50.892;5.740;2024-01-30T06:41:09;56270.91;;;-142.21;77.44
5053;BME280;2545;50.892;5.740;2024-01-30T06:43:34;56274.84;;;-142.21;77.08
5053;BME280;2545;50.892;5.740;2024-01-30T06:46:00;56333.69;;;-142.21;77.13
5053;BME280;2545;50.892;5.740;2024-01-30T06:48:25;56284.66;;;-142.21;77.61
5053;BME280;2545;50.892;5.740;2024-01-30T06:50:53;56294.47;;;-142.21;77.42
5053;BME280;2545;50.892;5.740;2024-01-30T06:53:19;56237.59;;;-142.21;77.62
5053;BME280;2545;50.892;5.740;2024-01-30T06:55:44;56310.13;;;-142.21;77.74
5053;BME280;2545;50.892;5.740;2024-01-30T06:58:10;56276.81;;;-142.21;77.66
5053;BME280;2545;50.892;5.740;2024-01-30T07:00:36;56294.47;;;-142.21;77.56
5053;BME280;2545;50.892;5.740;2024-01-30T07:03:01;56310.13;;;-142.21;77.57
5053;BME280;2545;50.892;5.740;2024-01-30T07:05:27;56304.25;;;-142.21;77.34
5053;BME280;2545;50.892;5.740;2024-01-30T07:07:52;56296.41;;;-142.21;77.42
5053;BME280;2545;50.892;5.740;2024-01-30T07:10:17;56284.66;;;-142.21;77.20
5053;BME280;2545;50.892;5.740;2024-01-30T07:12:43;56290.53;;;-142.21;77.01
5053;BME280;2545;50.892;5.740;2024-01-30T07:15:08;56306.22;;;-142.21;77.25
5053;BME280;2545;50.892;5.740;2024-01-30T07:17:36;56319.94;;;-142.21;76.84
5053;BME280;2545;50.892;5.740;2024-01-30T07:20:02;56265.03;;;-142.21;76.37
5053;BME280;2545;50.892;5.740;2024-01-30T07:22:29;56323.88;;;-142.21;76.72
5053;BME280;2545;50.892;5.740;2024-01-30T07:24:55;56274.84;;;-142.21;76.82
5053;BME280;2545;50.892;5.740;2024-01-30T07:27:20;56298.38;;;-142.21;76.62
5053;BME280;2545;50.892;5.740;2024-01-30T07:29:46;56278.78;;;-142.21;76.35
5053;BME280;2545;50.892;5.740;2024-01-30T07:32:12;56282.69;;;-142.21;75.96
5053;BME280;2545;50.892;5.740;2024-01-30T07:34:38;56284.66;;;-142.21;75.80
5053;BME280;2545;50.892;5.740;2024-01-30T07:37:04;56280.72;;;-142.21;76.01
5053;BME280;2545;50.892;5.740;2024-01-30T07:39:29;56304.25;;;-142.21;76.01
5053;BME280;2545;50.892;5.740;2024-01-30T07:41:54;56265.03;;;-142.21;76.31
5053;BME280;2545;50.892;5.740;2024-01-30T07:44:20;56267.00;;;-142.21;76.39
5053;BME280;2545;50.892;5.740;2024-01-30T07:46:46;56306.22;;;-142.21;75.80
5053;BME280;2545;50.892;5.740;2024-01-30T07:49:11;56280.72;;;-142.21;75.78
5053;BME280;2545;50.892;5.740;2024-01-30T07:51:36;56314.06;;;-142.21;75.82
5053;BME280;2545;50.892;5.740;2024-01-30T07:54:02;56302.28;;;-142.21;75.73
5053;BME280;2545;50.892;5.740;2024-01-30T07:56:27;56270.91;;;-142.21;75.00
5053;BME280;2545;50.892;5.740;2024-01-30T07:58:53;56247.38;;;-142.21;75.15
5053;BME280;2545;50.892;5.740;2024-01-30T08:01:18;56300.34;;;-142.21;75.33
5053;BME280;2545;50.892;5.740;2024-01-30T08:03:44;56314.06;;;-142.21;75.09
5053;BME280;2545;50.892;5.740;2024-01-30T08:06:09;56308.19;;;-142.21;75.10
5053;BME280;2545;50.892;5.740;2024-01-30T08:08:35;56286.63;;;-142.21;75.08
5053;BME280;2545;50.892;5.740;2024-01-30T08:11:00;56292.50;;;-142.21;75.18
5053;BME280;2545;50.892;5.740;2024-01-30T08:13:25;56282.69;;;-142.21;75.04
5053;BME280;2545;50.892;5.740;2024-01-30T08:15:51;56270.91;;;-142.21;74.67
5053;BME280;2545;50.892;5.740;2024-01-30T08:18:16;56261.13;;;-142.21;74.61
5053;BME280;2545;50.892;5.740;2024-01-30T08:20:41;56280.72;;;-142.21;74.66
5053;BME280;2545;50.892;5.740;2024-01-30T08:23:07;56298.38;;;-142.21;75.09
5053;BME280;2545;50.892;5.740;2024-01-30T08:25:33;56290.53;;;-142.21;75.31
5053;BME280;2545;50.892;5.740;2024-01-30T08:27:58;56296.41;;;-142.21;75.11
5053;BME280;2545;50.892;5.740;2024-01-30T08:30:23;56331.72;;;-142.21;75.07
5053;BME280;2545;50.892;5.740;2024-01-30T08:32:49;56300.34;;;-142.21;75.56
5053;BME280;2545;50.892;5.740;2024-01-30T08:35:14;56308.19;;;-142.21;75.37
5053;BME280;2545;50.892;5.740;2024-01-30T08:37:41;56296.41;;;-142.21;75.07
5053;BME280;2545;50.892;5.740;2024-01-30T08:40:07;56288.56;;;-142.21;75.35
5053;BME280;2545;50.892;5.740;2024-01-30T08:42:33;56243.47;;;-142.21;74.68
5053;BME280;2545;50.892;5.740;2024-01-30T08:44:59;56294.47;;;-142.21;74.67
5053;BME280;2545;50.892;5.740;2024-01-30T08:47:24;56306.22;;;-142.21;74.68
5053;BME280;2545;50.892;5.740;2024-01-30T08:49:50;56272.88;;;-142.21;74.43
5053;BME280;2545;50.892;5.740;2024-01-30T08:52:16;56272.88;;;-142.21;74.18
5053;BME280;2545;50.892;5.740;2024-01-30T08:54:41;56268.97;;;-142.21;74.31
5053;BME280;2545;50.892;5.740;2024-01-30T08:57:06;56280.72;;;-142.21;74.41
5053;BME280;2545;50.892;5.740;2024-01-30T08:59:33;56319.94;;;-142.21;74.73
5053;BME280;2545;50.892;5.740;2024-01-30T09:01:58;56263.06;;;-142.21;74.86
5053;BME280;2545;50.892;5.740;2024-01-30T09:04:24;56233.66;;;-142.21;74.89
5053;BME280;2545;50.892;5.740;2024-01-30T09:06:50;56317.97;;;-142.21;74.63
5053;BME280;2545;50.892;5.740;2024-01-30T09:09:15;56288.56;;;-142.21;74.20
5053;BME280;2545;50.892;5.740;2024-01-30T09:11:41;56302.28;;;-142.21;74.50
5053;BME280;2545;50.892;5.740;2024-01-30T09:14:06;56276.81;;;-142.21;74.68
5053;BME280;2545;50.892;5.740;2024-01-30T09:16:31;56282.69;;;-142.21;74.38
5053;BME280;2545;50.892;5.740;2024-01-30T09:18:57;56282.69;;;-142.21;74.13
5053;BME280;2545;50.892;5.740;2024-01-30T09:21:22;56296.41;;;-142.21;74.31
5053;BME280;2545;50.892;5.740;2024-01-30T09:23:48;56304.25;;;-142.21;73.97
5053;BME280;2545;50.892;5.740;2024-01-30T09:26:13;56288.56;;;-142.21;73.93
5053;BME280;2545;50.892;5.740;2024-01-30T09:28:38;56263.06;;;-142.21;73.88
5053;BME280;2545;50.892;5.740;2024-01-30T09:31:04;56268.97;;;-142.21;74.19
5053;BME280;2545;50.892;5.740;2024-01-30T09:33:29;56288.56;;;-142.21;74.23
5053;BME280;2545;50.892;5.740;2024-01-30T09:35:54;56288.56;;;-142.21;73.83
5053;BME280;2545;50.892;5.740;2024-01-30T09:38:20;56282.69;;;-142.21;73.46
5053;BME280;2545;50.892;5.740;2024-01-30T09:40:53;56272.88;;;-142.21;73.41
5053;BME280;2545;50.892;5.740;2024-01-30T09:43:22;56272.88;;;-142.21;73.28
5053;BME280;2545;50.892;5.740;2024-01-30T09:45:50;56292.50;;;-142.21;73.51
5053;BME280;2545;50.892;5.740;2024-01-30T09:48:15;56321.91;;;-142.21;73.02
5053;BME280;2545;50.892;5.740;2024-01-30T09:50:41;56272.88;;;-142.21;73.21
5053;BME280;2545;50.892;5.740;2024-01-30T09:53:08;56272.88;;;-142.21;73.24
5053;BME280;2545;50.892;5.740;2024-01-30T09:55:35;56317.97;;;-142.21;73.12
5053;BME280;2545;50.892;5.740;2024-01-30T09:58:01;56288.56;;;-142.21;72.42
5053;BME280;2545;50.892;5.740;2024-01-30T10:00:26;56263.06;;;-142.21;72.74
5053;BME280;2545;50.892;5.740;2024-01-30T10:02:52;56257.19;;;-142.21;72.76
5053;BME280;2545;50.892;5.740;2024-01-30T10:05:19;56294.47;;;-142.21;72.62
5053;BME280;2545;50.892;5.740;2024-01-30T10:07:54;56292.50;;;-142.21;72.82
5053;BME280;2545;50.892;5.740;2024-01-30T10:10:23;56292.50;;;-142.21;72.58
5053;BME280;2545;50.892;5.740;2024-01-30T10:12:52;56259.16;;;-142.21;72.44
5053;BME280;2545;50.892;5.740;2024-01-30T10:15:19;56290.53;;;-142.21;72.83
5053;BME280;2545;50.892;5.740;2024-01-30T10:17:44;56288.56;;;-142.21;72.92
5053;BME280;2545;50.892;5.740;2024-01-30T10:20:11;56265.03;;;-142.21;72.28
5053;BME280;2545;50.892;5.740;2024-01-30T10:22:36;56280.72;;;-142.21;72.07
5053;BME280;2545;50.892;5.740;2024-01-30T10:25:01;56288.56;;;-142.21;72.67
5053;BME280;2545;50.892;5.740;2024-01-30T10:27:27;56265.03;;;-142.21;72.36
5053;BME280;2545;50.892;5.740;2024-01-30T10:29:55;56306.22;;;-142.21;72.56
5053;BME280;2545;50.892;5.740;2024-01-30T10:32:20;56249.34;;;-142.21;72.54
5053;BME280;2545;50.892;5.740;2024-01-30T10:34:46;56268.97;;;-142.21;72.58
5053;BME280;2545;50.892;5.740;2024-01-30T10:37:12;56280.72;;;-142.21;73.01
5053;BME280;2545;50.892;5.740;2024-01-30T10:39:41;56276.81;;;-142.21;73.05
5053;BME280;2545;50.892;5.740;2024-01-30T10:42:17;56292.50;;;-142.21;73.45
5053;BME280;2545;50.892;5.740;2024-01-30T10:44:56;56286.63;;;-142.21;73.55
5053;BME280;2545;50.892;5.740;2024-01-30T10:47:26;56286.63;;;-142.21;73.26
5053;BME280;2545;50.892;5.740;2024-01-30T10:49:54;56261.13;;;-142.21;73.91
5053;BME280;2545;50.892;5.740;2024-01-30T10:52:20;56265.03;;;-142.21;73.51
5053;BME280;2545;50.892;5.740;2024-01-30T10:54:46;56245.44;;;-142.21;73.16
5053;BME280;2545;50.892;5.740;2024-01-30T10:57:13;56282.69;;;-142.21;73.20
5053;BME280;2545;50.892;5.740;2024-01-30T10:59:41;56298.38;;;-142.21;73.04
5053;BME280;2545;50.892;5.740;2024-01-30T11:02:08;56282.69;;;-142.21;73.18
5053;BME280;2545;50.892;5.740;2024-01-30T11:04:38;56343.47;;;-142.21;73.06
5053;BME280;2545;50.892;5.740;2024-01-30T11:12:28;56286.63;;;-142.21;73.20
5053;BME280;2545;50.892;5.740;2024-01-30T11:15:14;56259.16;;;-142.21;73.39
5053;BME280;2545;50.892;5.740;2024-01-30T11:20:30;56270.91;;;-142.21;74.09
5053;BME280;2545;50.892;5.740;2024-01-30T11:22:57;56290.53;;;-142.21;74.00
5053;BME280;2545;50.892;5.740;2024-01-30T11:25:23;56263.06;;;-142.21;74.59
5053;BME280;2545;50.892;5.740;2024-01-30T11:27:52;56274.84;;;-142.21;74.07
5053;BME280;2545;50.892;5.740;2024-01-30T11:30:29;56290.53;;;-142.21;73.98
5053;BME280;2545;50.892;5.740;2024-01-30T11:33:05;56272.88;;;-142.21;74.57
5053;BME280;2545;50.892;5.740;2024-01-30T11:35:32;56265.03;;;-142.21;74.48
5053;BME280;2545;50.892;5.740;2024-01-30T11:37:59;56306.22;;;-142.21;74.36
5053;BME280;2545;50.892;5.740;2024-01-30T11:40:27;56276.81;;;-142.21;75.27
5053;BME280;2545;50.892;5.740;2024-01-30T11:42:55;56294.47;;;-142.21;75.28
5053;BME280;2545;50.892;5.740;2024-01-30T11:45:20;56263.06;;;-142.21;75.50
5053;BME280;2545;50.892;5.740;2024-01-30T11:47:46;56312.09;;;-142.21;75.90
5053;BME280;2545;50.892;5.740;2024-01-30T11:50:11;56249.34;;;-142.21;75.62
5053;BME280;2545;50.892;5.740;2024-01-30T11:52:37;56243.47;;;-142.21;76.41
5053;BME280;2545;50.892;5.740;2024-01-30T11:55:03;56261.13;;;-142.21;76.38
5053;BME280;2545;50.892;5.740;2024-01-30T11:57:29;56284.66;;;-142.21;76.35
5053;BME280;2545;50.892;5.740;2024-01-30T11:59:54;56298.38;;;-142.21;76.78
5053;BME280;2545;50.892;5.740;2024-01-30T12:02:19;56288.56;;;-142.21;77.27
5053;BME280;2545;50.892;5.740;2024-01-30T12:04:46;56265.03;;;-142.21;77.02
5053;BME280;2545;50.892;5.740;2024-01-30T12:07:12;56292.50;;;-142.21;76.88
5053;BME280;2545;50.892;5.740;2024-01-30T12:09:41;56280.72;;;-142.21;76.80
5053;BME280;2545;50.892;5.740;2024-01-30T12:12:06;56284.66;;;-142.21;76.52
5053;BME280;2545;50.892;5.740;2024-01-30T12:14:33;56292.50;;;-142.21;76.53
5053;BME280;2545;50.892;5.740;2024-01-30T12:16:58;56296.41;;;-142.21;76.75
5053;BME280;2545;50.892;5.740;2024-01-30T12:19:24;56261.13;;;-142.21;76.84
5053;BME280;2545;50.892;5.740;2024-01-30T12:21:57;56296.41;;;-142.21;77.01
5053;BME280;2545;50.892;5.740;2024-01-30T12:24:27;56265.03;;;-142.21;77.17
5053;BME280;2545;50.892;5.740;2024-01-30T12:26:56;56316.03;;;-142.21;77.25
5053;BME280;2545;50.892;5.740;2024-01-30T12:29:22;56292.50;;;-142.21;77.13
5053;BME280;2545;50.892;5.740;2024-01-30T12:31:47;56292.50;;;-142.21;76.96
5053;BME280;2545;50.892;5.740;2024-01-30T12:34:16;56302.28;;;-142.21;76.73
5053;BME280;2545;50.892;5.740;2024-01-30T12:36:43;56300.34;;;-142.21;76.83
5053;BME280;2545;50.892;5.740;2024-01-30T12:39:12;56280.72;;;-142.21;77.10
5053;BME280;2545;50.892;5.740;2024-01-30T12:41:39;56290.53;;;-142.21;77.29
5053;BME280;2545;50.892;5.740;2024-01-30T12:44:05;56300.34;;;-142.21;77.31
5053;BME280;2545;50.892;5.740;2024-01-30T12:46:30;56314.06;;;-142.21;77.24
5053;BME280;2545;50.892;5.740;2024-01-30T12:48:56;56278.78;;;-142.21;77.55
5053;BME280;2545;50.892;5.740;2024-01-30T12:51:21;56288.56;;;-142.21;77.39
5053;BME280;2545;50.892;5.740;2024-01-30T12:53:48;56308.19;;;-142.21;77.37
5053;BME280;2545;50.892;5.740;2024-01-30T12:56:13;56306.22;;;-142.21;77.01
5053;BME280;2545;50.892;5.740;2024-01-30T12:58:40;56290.53;;;-142.21;77.24
5053;BME280;2545;50.892;5.740;2024-01-30T13:01:08;56335.63;;;-142.21;77.19